Time;durP1;ratioP1;P1;durP2;ratioP2;P2;SDS_P1;SDS_P2;PMS_P1;PMS_P2;Temp;Humidity;BMP_temperature;BMP_pressure;BME280_temperature;BME280_humidity;BME280_pressure;Samples;Min_cycle;Max_cycle;Signal;HPM_P1;HPM_P2
2024/01/06 00:00:10;;;;;;;5.83;1.63;;;;;;;4.32;100.00;98883.22;4982863;28;20660;-59
2024/01/06 00:02:35;;;;;;;4.37;1.73;;;;;;;4.41;100.00;98890.38;4993557;28;20237;-59
2024/01/06 00:05:00;;;;;;;5.30;1.80;;;;;;;4.47;100.00;98889.28;4992108;28;20615;-60
2024/01/06 00:07:26;;;;;;;3.20;2.00;;;;;;;4.48;100.00;98886.66;4991203;28;20187;-60
2024/01/06 00:09:52;;;;;;;6.07;2.30;;;;;;;4.56;100.00;98896.44;4978387;28;20183;-59
2024/01/06 00:12:18;;;;;;;4.13;2.00;;;;;;;4.45;100.00;98891.06;4981668;28;20276;-59
2024/01/06 00:14:45;;;;;;;3.70;2.20;;;;;;;4.23;100.00;98902.28;4990416;28;20195;-60
2024/01/06 00:17:10;;;;;;;5.03;2.10;;;;;;;4.32;100.00;98904.38;4989917;28;20179;-59
2024/01/06 00:19:36;;;;;;;5.03;2.47;;;;;;;4.27;100.00;98901.25;4991710;28;20321;-60
2024/01/06 00:22:01;;;;;;;3.27;2.30;;;;;;;4.27;100.00;98900.44;4983424;28;20245;-58
2024/01/06 00:24:26;;;;;;;9.33;2.40;;;;;;;4.27;100.00;98910.63;4980854;28;20725;-59
2024/01/06 00:26:51;;;;;;;4.57;2.10;;;;;;;4.31;100.00;98912.91;5006157;28;20185;-61
2024/01/06 00:29:17;;;;;;;6.90;3.07;;;;;;;4.39;100.00;98904.94;4991081;28;20199;-59
2024/01/06 00:31:42;;;;;;;3.13;1.70;;;;;;;4.40;100.00;98903.19;4958447;28;20257;-60
2024/01/06 00:34:07;;;;;;;3.07;2.20;;;;;;;4.48;100.00;98907.03;4987090;28;20194;-60
2024/01/06 00:36:32;;;;;;;3.90;2.17;;;;;;;4.38;100.00;98900.72;4990751;28;20197;-59
2024/01/06 00:46:15;;;;;;;2.90;2.53;;;;;;;4.18;100.00;98902.50;5081395;27;20558;-64
2024/01/06 00:48:41;;;;;;;4.80;2.30;;;;;;;4.29;100.00;98903.72;5070296;28;20284;-61
2024/01/06 00:51:06;;;;;;;4.53;2.20;;;;;;;4.10;100.00;98908.84;5071765;28;20749;-63
2024/01/06 00:53:32;;;;;;;8.30;2.40;;;;;;;4.23;100.00;98914.19;5083831;28;20227;-63
2024/01/06 00:55:57;;;;;;;3.07;1.90;;;;;;;4.27;100.00;98913.97;5068389;28;20183;-61
2024/01/06 00:58:22;;;;;;;4.70;2.00;;;;;;;4.30;100.00;98920.63;5069481;28;20249;-60
2024/01/06 01:00:48;;;;;;;3.90;2.00;;;;;;;4.30;100.00;98918.09;5070544;28;20233;-63
2024/01/06 01:03:13;;;;;;;3.93;2.27;;;;;;;4.36;100.00;98910.16;5087786;28;20286;-63
2024/01/06 01:05:38;;;;;;;7.27;4.17;;;;;;;4.40;100.00;98910.84;5067016;28;20605;-63
2024/01/06 01:08:04;;;;;;;8.27;2.27;;;;;;;4.43;100.00;98913.22;5068146;28;20185;-63
2024/01/06 01:10:29;;;;;;;5.07;2.23;;;;;;;4.38;100.00;98913.47;5065097;28;20261;-63
2024/01/06 01:12:55;;;;;;;3.83;1.70;;;;;;;4.45;100.00;98916.53;5091340;28;20227;-63
2024/01/06 01:15:20;;;;;;;7.83;2.40;;;;;;;4.38;100.00;98926.19;5065636;28;20253;-62
2024/01/06 01:17:45;;;;;;;5.20;2.40;;;;;;;4.58;100.00;98929.50;5066856;28;20180;-62
2024/01/06 01:20:10;;;;;;;4.30;2.37;;;;;;;4.66;100.00;98928.25;5059377;28;20177;-64
2024/01/06 01:22:36;;;;;;;5.73;2.70;;;;;;;4.74;100.00;98927.84;5081770;28;20282;-61
2024/01/06 01:25:05;;;;;;;4.37;1.90;;;;;;;4.79;100.00;98928.44;5082933;28;20196;-61
2024/01/06 01:27:30;;;;;;;6.30;2.40;;;;;;;4.76;100.00;98930.31;5066800;28;20192;-61
2024/01/06 01:29:56;;;;;;;4.57;1.93;;;;;;;4.78;100.00;98923.44;5083239;28;20180;-61
2024/01/06 01:32:21;;;;;;;5.27;1.97;;;;;;;4.79;100.00;98937.81;5073486;28;20643;-61
2024/01/06 01:34:46;;;;;;;4.00;2.20;;;;;;;4.82;100.00;98935.13;5067700;28;20259;-61
2024/01/06 01:37:11;;;;;;;6.93;2.07;;;;;;;4.82;100.00;98948.66;5067732;28;20188;-61
2024/01/06 01:39:37;;;;;;;2.60;1.90;;;;;;;4.93;100.00;98947.31;5065988;28;20173;-61
2024/01/06 01:42:03;;;;;;;4.63;2.23;;;;;;;4.82;100.00;98941.03;5073379;28;20286;-61
2024/01/06 01:44:28;;;;;;;3.23;2.23;;;;;;;4.77;100.00;98947.25;5047241;28;20675;-64
2024/01/06 01:46:53;;;;;;;6.93;2.37;;;;;;;4.80;100.00;98953.03;5086146;28;20272;-61
2024/01/06 01:49:20;;;;;;;3.90;2.00;;;;;;;4.85;100.00;98955.34;5053067;28;20189;-62
2024/01/06 01:51:46;;;;;;;4.63;1.80;;;;;;;4.73;100.00;98966.97;5050844;28;20269;-61
2024/01/06 01:54:11;;;;;;;6.73;1.87;;;;;;;4.80;100.00;98962.38;5048074;28;20206;-62
2024/01/06 01:56:39;;;;;;;5.87;2.23;;;;;;;4.80;100.00;98963.22;5030457;28;20302;-61
2024/01/06 01:59:09;;;;;;;8.07;2.10;;;;;;;4.94;100.00;98961.72;5033537;28;20706;-62
2024/01/06 02:01:34;;;;;;;5.30;2.23;;;;;;;4.73;100.00;98959.31;5047903;28;20618;-62
2024/01/06 02:03:59;;;;;;;5.40;2.20;;;;;;;4.43;100.00;98962.44;5041331;28;20174;-61
2024/01/06 02:06:25;;;;;;;3.27;2.20;;;;;;;4.46;100.00;98956.38;5034114;28;20170;-61
2024/01/06 02:08:50;;;;;;;3.70;2.13;;;;;;;4.42;100.00;98957.44;5033510;28;20224;-61
2024/01/06 02:11:15;;;;;;;4.53;2.40;;;;;;;4.44;100.00;98955.63;5035681;28;20509;-61
2024/01/06 02:13:40;;;;;;;7.47;1.90;;;;;;;4.57;100.00;98956.69;5045979;28;20582;-61
2024/01/06 02:16:06;;;;;;;5.50;2.33;;;;;;;4.74;100.00;98947.41;5033987;28;20189;-61
2024/01/06 02:18:32;;;;;;;5.23;2.23;;;;;;;4.73;100.00;98948.31;5032300;28;20181;-61
2024/01/06 02:20:59;;;;;;;4.07;2.13;;;;;;;4.85;100.00;98951.06;5038418;28;20754;-61
2024/01/06 02:23:25;;;;;;;5.23;2.17;;;;;;;4.89;100.00;98946.66;5049558;28;20177;-62
2024/01/06 02:25:51;;;;;;;3.63;2.07;;;;;;;4.98;100.00;98956.38;5033822;28;20209;-61
2024/01/06 02:28:16;;;;;;;3.37;2.07;;;;;;;4.90;100.00;98960.22;5031077;28;20209;-62
2024/01/06 02:30:41;;;;;;;6.33;2.40;;;;;;;4.91;100.00;98969.50;5034077;28;20305;-61
2024/01/06 02:33:07;;;;;;;2.23;1.87;;;;;;;4.90;100.00;98978.88;5054291;28;20244;-61
2024/01/06 02:35:32;;;;;;;7.47;2.00;;;;;;;4.88;100.00;98980.66;5033537;28;20178;-61
2024/01/06 02:37:57;;;;;;;3.90;2.03;;;;;;;4.79;100.00;98989.59;5033268;28;20269;-61
2024/01/06 02:40:22;;;;;;;5.13;2.83;;;;;;;4.83;100.00;98986.00;5028689;28;20617;-61
2024/01/06 02:42:48;;;;;;;6.90;3.67;;;;;;;4.91;100.00;98995.84;5058267;28;20170;-61
2024/01/06 02:45:13;;;;;;;5.27;3.80;;;;;;;4.82;100.00;98984.34;5020642;28;20229;-61
2024/01/06 02:47:38;;;;;;;6.57;3.87;;;;;;;4.76;100.00;98991.47;5033272;28;20189;-62
2024/01/06 02:50:05;;;;;;;7.93;4.13;;;;;;;4.54;100.00;98984.88;5060738;28;20281;-64
2024/01/06 02:52:30;;;;;;;6.93;3.80;;;;;;;4.32;100.00;98988.41;5056997;28;20265;-61
2024/01/06 02:54:55;;;;;;;6.90;3.90;;;;;;;4.27;100.00;98981.91;5026317;28;20272;-61
2024/01/06 02:57:21;;;;;;;9.33;4.07;;;;;;;4.33;100.00;98981.59;5033168;28;20235;-61
2024/01/06 02:59:46;;;;;;;5.07;3.30;;;;;;;4.29;100.00;98982.63;5033100;28;20222;-61
2024/01/06 03:02:11;;;;;;;6.80;3.87;;;;;;;4.48;100.00;98995.34;5054083;28;20584;-62
2024/01/06 03:04:36;;;;;;;6.50;3.20;;;;;;;4.53;100.00;99006.94;5032793;28;20197;-61
2024/01/06 03:07:02;;;;;;;7.33;3.27;;;;;;;4.36;100.00;99012.00;5032729;28;20182;-62
2024/01/06 03:09:27;;;;;;;3.57;2.77;;;;;;;4.45;100.00;99000.56;5031804;28;20182;-62
2024/01/06 03:11:52;;;;;;;6.43;3.13;;;;;;;4.33;100.00;98997.69;5051516;28;20216;-62
2024/01/06 03:14:18;;;;;;;7.70;2.67;;;;;;;4.28;100.00;98994.53;5032760;28;20181;-61
2024/01/06 03:16:43;;;;;;;5.50;2.83;;;;;;;4.36;100.00;98995.00;5032447;28;20177;-62
2024/01/06 03:19:08;;;;;;;7.13;2.73;;;;;;;4.56;100.00;98994.97;5032600;28;20193;-62
2024/01/06 03:21:34;;;;;;;7.10;3.00;;;;;;;4.58;100.00;98995.72;5046337;28;20234;-62
2024/01/06 03:23:59;;;;;;;4.30;2.87;;;;;;;4.40;100.00;98989.78;5034809;28;20199;-62
2024/01/06 03:26:25;;;;;;;5.20;2.63;;;;;;;4.29;100.00;98997.91;5032681;28;20641;-62
2024/01/06 03:28:50;;;;;;;5.73;2.70;;;;;;;4.19;100.00;98998.34;5032485;28;20235;-62
2024/01/06 03:31:15;;;;;;;4.90;2.80;;;;;;;4.44;100.00;98991.28;5041920;28;20224;-61
2024/01/06 03:33:42;;;;;;;6.50;3.00;;;;;;;4.51;100.00;98993.47;5036964;28;20183;-62
2024/01/06 03:36:08;;;;;;;6.57;2.87;;;;;;;4.50;100.00;98996.06;5032203;28;20181;-62
2024/01/06 03:38:33;;;;;;;4.73;2.57;;;;;;;4.45;100.00;98998.84;5032699;28;20174;-61
2024/01/06 03:40:59;;;;;;;4.47;2.80;;;;;;;4.38;100.00;99005.13;5031286;28;20250;-63
2024/01/06 03:43:24;;;;;;;11.23;3.60;;;;;;;4.34;100.00;99008.69;5048716;28;20608;-64
2024/01/06 03:45:49;;;;;;;7.37;3.57;;;;;;;4.24;100.00;99007.47;5032072;28;20271;-61
2024/01/06 03:48:14;;;;;;;5.73;3.03;;;;;;;4.31;100.00;99019.03;5032139;28;20186;-61
2024/01/06 03:50:40;;;;;;;6.33;3.40;;;;;;;4.46;100.00;99018.31;5027930;28;20235;-62
2024/01/06 03:53:05;;;;;;;5.97;2.70;;;;;;;4.61;100.00;99019.31;5053376;28;20191;-62
2024/01/06 03:55:30;;;;;;;5.20;2.70;;;;;;;4.65;100.00;99020.84;5032340;28;20194;-62
2024/01/06 03:57:55;;;;;;;8.23;3.20;;;;;;;4.77;100.00;99023.69;5032092;28;20182;-62
2024/01/06 04:00:21;;;;;;;6.63;2.60;;;;;;;4.60;100.00;99030.41;5025359;28;20233;-61
2024/01/06 04:02:46;;;;;;;6.50;2.70;;;;;;;4.69;100.00;99029.97;5043706;28;20189;-61
2024/01/06 04:05:11;;;;;;;6.53;2.63;;;;;;;4.62;100.00;99030.34;5031728;28;20232;-61
2024/01/06 04:07:37;;;;;;;4.10;2.80;;;;;;;4.64;100.00;99026.81;5032049;28;20567;-62
2024/01/06 04:10:02;;;;;;;6.70;2.97;;;;;;;4.49;100.00;99030.91;5029511;28;20633;-63
2024/01/06 04:12:27;;;;;;;4.17;2.90;;;;;;;4.63;100.00;99027.72;5038461;28;20202;-62
2024/01/06 04:14:53;;;;;;;3.73;2.17;;;;;;;4.51;100.00;99029.13;5024247;28;20190;-62
2024/01/06 04:17:18;;;;;;;5.13;2.63;;;;;;;4.61;100.00;99031.22;5025904;28;20232;-61
2024/01/06 04:19:43;;;;;;;4.73;2.70;;;;;;;4.75;100.00;99030.56;5023409;28;20648;-62
2024/01/06 04:22:09;;;;;;;7.73;2.70;;;;;;;4.77;100.00;99031.34;5047772;28;20231;-61
2024/01/06 04:24:37;;;;;;;5.60;2.50;;;;;;;4.80;100.00;99031.16;5031728;28;20252;-62
2024/01/06 04:27:03;;;;;;;5.07;2.67;;;;;;;4.79;100.00;99032.09;5031165;28;20197;-61
2024/01/06 04:29:29;;;;;;;4.17;2.83;;;;;;;4.78;100.00;99033.00;5030358;28;20246;-61
2024/01/06 04:31:54;;;;;;;4.30;2.70;;;;;;;4.78;100.00;99033.00;5011990;28;20618;-63
2024/01/06 04:34:19;;;;;;;7.07;3.10;;;;;;;4.79;100.00;99037.19;5014297;28;20190;-63
2024/01/06 04:36:45;;;;;;;5.73;2.93;;;;;;;4.86;100.00;99041.06;5030670;28;20197;-63
2024/01/06 04:39:10;;;;;;;4.83;2.27;;;;;;;4.84;100.00;99033.50;5031655;28;20186;-62
2024/01/06 04:41:36;;;;;;;4.80;2.93;;;;;;;4.94;100.00;99027.97;5035034;28;20233;-62
2024/01/06 04:44:01;;;;;;;6.30;2.50;;;;;;;4.90;100.00;99029.00;5038266;28;20577;-63
2024/01/06 04:46:26;;;;;;;5.63;2.80;;;;;;;4.91;100.00;99018.75;5025439;28;20258;-62
2024/01/06 04:48:51;;;;;;;8.27;2.70;;;;;;;5.05;100.00;99020.63;5028702;28;20184;-62
2024/01/06 04:51:17;;;;;;;2.77;2.00;;;;;;;5.07;100.00;99012.91;5040904;28;20231;-65
2024/01/06 04:53:42;;;;;;;5.73;2.57;;;;;;;4.97;100.00;99012.53;5035909;28;20280;-62
2024/01/06 04:56:07;;;;;;;4.37;2.53;;;;;;;5.04;100.00;99018.16;5031036;28;20264;-62
2024/01/06 04:58:34;;;;;;;8.17;2.40;;;;;;;4.87;100.00;99024.88;5029999;28;20190;-62
2024/01/06 05:00:59;;;;;;;4.60;2.43;;;;;;;5.02;100.00;99020.78;5055142;28;20224;-63
2024/01/06 05:03:25;;;;;;;5.10;2.83;;;;;;;5.04;100.00;99024.06;5038244;28;20186;-62
2024/01/06 05:05:50;;;;;;;7.27;2.43;;;;;;;5.04;100.00;99021.53;5030925;28;20657;-62
2024/01/06 05:08:17;;;;;;;7.20;2.40;;;;;;;5.03;100.00;99027.53;5031074;28;20190;-62
2024/01/06 05:10:42;;;;;;;4.73;2.37;;;;;;;4.93;100.00;99027.13;5031268;28;20227;-63
2024/01/06 05:13:07;;;;;;;4.07;2.30;;;;;;;5.08;100.00;99035.75;5023802;28;20268;-62
2024/01/06 05:15:33;;;;;;;3.87;2.07;;;;;;;5.15;100.00;99039.66;5029477;28;20178;-62
2024/01/06 05:17:58;;;;;;;6.73;2.07;;;;;;;5.22;100.00;99047.00;5031427;28;20174;-62
2024/01/06 05:20:23;;;;;;;3.30;2.00;;;;;;;5.30;100.00;99039.81;5025955;28;21062;-62
2024/01/06 05:22:48;;;;;;;2.87;2.33;;;;;;;5.23;100.00;99041.81;5056833;28;20209;-62
2024/01/06 05:25:14;;;;;;;5.83;2.63;;;;;;;5.21;100.00;99042.81;5029429;28;20210;-62
2024/01/06 05:27:39;;;;;;;4.00;2.07;;;;;;;5.13;100.00;99051.66;5031101;28;20679;-62
2024/01/06 05:30:06;;;;;;;3.10;2.10;;;;;;;5.25;100.00;99044.31;5021601;28;20194;-62
2024/01/06 05:32:31;;;;;;;6.03;2.20;;;;;;;5.10;100.00;99044.16;5063916;28;20261;-62
2024/01/06 05:34:56;;;;;;;2.37;2.07;;;;;;;4.81;100.00;99041.31;5034191;28;20264;-62
2024/01/06 05:37:21;;;;;;;4.73;2.03;;;;;;;5.09;100.00;99039.16;5034738;28;20228;-61
2024/01/06 05:39:47;;;;;;;4.23;2.47;;;;;;;5.23;100.00;99048.66;5034179;28;20572;-62
2024/01/06 05:42:12;;;;;;;4.60;2.23;;;;;;;5.17;100.00;99048.06;5055653;28;20674;-61
2024/01/06 05:44:38;;;;;;;4.10;2.20;;;;;;;5.16;100.00;99046.41;5033852;28;20229;-62
2024/01/06 05:47:04;;;;;;;4.60;2.07;;;;;;;5.19;100.00;99049.72;5034345;28;20273;-61
2024/01/06 05:49:29;;;;;;;5.50;2.03;;;;;;;5.14;100.00;99058.41;5038329;28;20661;-62
2024/01/06 05:51:54;;;;;;;2.67;2.13;;;;;;;5.24;100.00;99060.53;5053440;28;20334;-62
2024/01/06 05:54:19;;;;;;;2.30;2.00;;;;;;;5.22;100.00;99052.97;5036249;28;20181;-62
2024/01/06 05:56:45;;;;;;;5.80;2.40;;;;;;;5.26;100.00;99053.59;5032936;28;20186;-62
2024/01/06 05:59:10;;;;;;;2.10;1.83;;;;;;;5.39;100.00;99057.19;5034069;28;20183;-61
2024/01/06 06:01:35;;;;;;;4.30;2.30;;;;;;;5.41;100.00;99064.75;5048320;28;20714;-62
2024/01/06 06:04:00;;;;;;;5.53;2.10;;;;;;;5.34;100.00;99064.25;5041070;28;20193;-62
2024/01/06 06:06:26;;;;;;;4.43;2.90;;;;;;;5.27;100.00;99068.84;5066040;28;20943;-62
2024/01/06 06:08:51;;;;;;;3.00;1.93;;;;;;;5.21;100.00;99068.31;5033878;28;20174;-62
2024/01/06 06:11:16;;;;;;;3.27;2.17;;;;;;;5.27;100.00;99068.00;5043391;28;20293;-62
2024/01/06 06:13:41;;;;;;;2.90;1.60;;;;;;;5.30;100.00;99070.41;5045789;28;20197;-62
2024/01/06 06:16:09;;;;;;;2.67;2.03;;;;;;;5.26;100.00;99074.84;5033877;28;20265;-62
2024/01/06 06:18:35;;;;;;;4.03;2.20;;;;;;;5.32;100.00;99077.09;5020528;28;20256;-62
2024/01/06 06:21:01;;;;;;;6.10;2.37;;;;;;;5.39;100.00;99082.69;5038825;28;20232;-63
2024/01/06 06:23:35;;;;;;;4.20;2.30;;;;;;;5.30;100.00;99088.28;5040626;28;20214;-62
2024/01/06 06:26:07;;;;;;;5.60;2.00;;;;;;;5.42;100.00;99090.22;5032373;28;20340;-62
2024/01/06 06:28:34;;;;;;;7.03;2.13;;;;;;;5.29;100.00;99094.25;5065708;28;20181;-62
2024/01/06 06:30:59;;;;;;;3.90;1.83;;;;;;;5.35;100.00;99099.06;5032843;28;20224;-62
2024/01/06 06:33:24;;;;;;;5.37;2.27;;;;;;;5.46;100.00;99101.09;5040176;28;20632;-63
2024/01/06 06:35:50;;;;;;;6.73;2.67;;;;;;;5.50;100.00;99100.03;5033479;28;20181;-61
2024/01/06 06:38:15;;;;;;;5.20;2.50;;;;;;;5.44;100.00;99095.22;5033746;28;20651;-62
2024/01/06 06:40:40;;;;;;;3.93;2.20;;;;;;;5.49;100.00;99106.88;5030335;28;20259;-62
2024/01/06 06:43:05;;;;;;;4.30;2.20;;;;;;;5.47;100.00;99111.22;5054338;28;20193;-62
2024/01/06 06:45:31;;;;;;;7.63;2.57;;;;;;;5.58;100.00;99112.41;5033392;28;20629;-62
2024/01/06 06:47:56;;;;;;;3.53;2.23;;;;;;;5.58;100.00;99114.94;5033470;28;20189;-62
2024/01/06 06:50:21;;;;;;;3.83;2.67;;;;;;;5.59;100.00;99116.59;5062801;28;20252;-62
2024/01/06 06:52:46;;;;;;;4.50;2.90;;;;;;;5.48;100.00;99125.63;5059416;28;20185;-62
2024/01/06 06:55:12;;;;;;;5.73;2.57;;;;;;;5.47;100.00;99135.88;5033646;28;20585;-62
2024/01/06 06:57:38;;;;;;;4.03;2.80;;;;;;;5.36;100.00;99133.88;5065290;28;20189;-62
2024/01/06 07:00:04;;;;;;;3.93;2.70;;;;;;;5.24;100.00;99127.63;5022136;28;20185;-62
2024/01/06 07:02:29;;;;;;;6.07;2.73;;;;;;;5.36;100.00;99138.97;5063659;28;20206;-62
2024/01/06 07:04:55;;;;;;;3.70;1.90;;;;;;;5.36;100.00;99140.69;5032711;28;20287;-63
2024/01/06 07:07:20;;;;;;;6.70;2.50;;;;;;;5.28;100.00;99143.59;5031690;28;20177;-62
2024/01/06 07:09:45;;;;;;;5.90;2.80;;;;;;;5.29;100.00;99138.44;5033104;28;20182;-61
2024/01/06 07:12:10;;;;;;;3.27;2.57;;;;;;;5.27;100.00;99144.50;5039512;28;20216;-62
2024/01/06 07:14:37;;;;;;;4.40;2.47;;;;;;;5.22;100.00;99144.75;5033054;28;20652;-61
2024/01/06 07:17:02;;;;;;;4.57;2.70;;;;;;;5.21;100.00;99145.63;5029881;28;20655;-62
2024/01/06 07:19:28;;;;;;;3.97;2.70;;;;;;;5.23;100.00;99154.00;5013623;28;20229;-61
2024/01/06 07:21:53;;;;;;;4.83;2.70;;;;;;;4.94;100.00;99158.78;5051533;28;20228;-61
2024/01/06 07:24:18;;;;;;;4.67;2.10;;;;;;;5.15;100.00;99158.69;5034671;28;20512;-62
2024/01/06 07:26:43;;;;;;;4.37;2.60;;;;;;;5.20;100.00;99160.97;5031028;28;20279;-62
2024/01/06 07:29:09;;;;;;;4.93;2.03;;;;;;;5.19;100.00;99161.91;5031188;28;20199;-62
2024/01/06 07:31:34;;;;;;;3.30;2.20;;;;;;;5.17;100.00;99167.91;5046363;28;20228;-62
2024/01/06 07:33:59;;;;;;;3.20;2.17;;;;;;;5.20;100.00;99164.38;5034746;28;20190;-62
2024/01/06 07:36:25;;;;;;;7.70;2.77;;;;;;;5.27;100.00;99164.91;5032745;28;20178;-62
2024/01/06 07:38:51;;;;;;;2.90;2.50;;;;;;;5.30;100.00;99164.78;5032085;28;20552;-62
2024/01/06 07:41:17;;;;;;;3.33;2.30;;;;;;;5.19;100.00;99169.56;5056899;28;20261;-62
2024/01/06 07:43:42;;;;;;;5.17;2.70;;;;;;;5.21;100.00;99185.59;5037171;28;20209;-62
2024/01/06 07:46:09;;;;;;;3.87;2.70;;;;;;;5.20;100.00;99184.78;5030687;28;20320;-62
2024/01/06 07:48:35;;;;;;;2.93;2.60;;;;;;;5.20;100.00;99189.03;5033265;28;20842;-63
2024/01/06 07:51:01;;;;;;;5.60;2.60;;;;;;;5.33;100.00;99190.09;5037438;28;20220;-63
2024/01/06 07:53:26;;;;;;;5.43;2.80;;;;;;;5.29;100.00;99193.72;5047819;28;20174;-63
2024/01/06 07:55:51;;;;;;;4.70;2.90;;;;;;;5.29;100.00;99203.91;5031972;28;20285;-62
2024/01/06 07:58:16;;;;;;;4.53;2.27;;;;;;;5.28;100.00;99205.66;5032266;28;20186;-63
2024/01/06 08:00:42;;;;;;;4.20;2.73;;;;;;;5.33;100.00;99203.69;5031486;28;20718;-64
2024/01/06 08:03:07;;;;;;;5.33;2.70;;;;;;;5.25;100.00;99210.06;5053373;28;20182;-63
2024/01/06 08:05:32;;;;;;;3.07;2.40;;;;;;;5.25;100.00;99215.16;5031914;28;20268;-62
2024/01/06 08:07:58;;;;;;;4.13;2.23;;;;;;;5.29;100.00;99225.13;5032143;28;20174;-63
2024/01/06 08:10:23;;;;;;;4.53;2.80;;;;;;;5.36;100.00;99217.19;5027596;28;20236;-62
2024/01/06 08:12:48;;;;;;;4.97;2.70;;;;;;;5.32;100.00;99219.06;5043557;28;20228;-63
2024/01/06 08:15:14;;;;;;;4.37;2.93;;;;;;;5.33;100.00;99220.72;5031593;28;20243;-62
2024/01/06 08:17:40;;;;;;;6.30;2.70;;;;;;;5.33;100.00;99224.09;5023190;28;20179;-62
2024/01/06 08:20:07;;;;;;;4.10;3.30;;;;;;;5.56;100.00;99227.28;5019974;28;20197;-62
2024/01/06 08:22:32;;;;;;;8.13;3.30;;;;;;;5.44;100.00;99238.88;5061895;28;20276;-62
2024/01/06 08:24:57;;;;;;;3.67;2.40;;;;;;;5.63;100.00;99235.47;5031277;28;20321;-62
2024/01/06 08:27:23;;;;;;;4.93;2.97;;;;;;;5.63;100.00;99233.75;5030309;28;20190;-63
2024/01/06 08:29:49;;;;;;;4.97;2.43;;;;;;;5.64;100.00;99240.50;5031654;28;20170;-63
2024/01/06 08:32:15;;;;;;;6.23;3.47;;;;;;;5.78;100.00;99234.72;5032128;28;20301;-65
2024/01/06 08:34:40;;;;;;;2.80;2.50;;;;;;;5.77;100.00;99245.03;5031230;28;20644;-64
2024/01/06 08:37:05;;;;;;;4.30;3.00;;;;;;;5.82;100.00;99243.06;5031359;28;20190;-63
2024/01/06 08:39:30;;;;;;;6.20;2.80;;;;;;;5.79;100.00;99244.03;5031030;28;20178;-63
2024/01/06 08:41:56;;;;;;;6.30;3.00;;;;;;;5.82;100.00;99251.53;5050885;28;20623;-65
2024/01/06 08:44:21;;;;;;;4.57;2.97;;;;;;;5.75;100.00;99251.91;5030062;28;20182;-64
2024/01/06 08:46:46;;;;;;;5.37;3.57;;;;;;;5.69;100.00;99263.22;5030949;28;20636;-63
2024/01/06 08:49:11;;;;;;;4.37;3.17;;;;;;;5.85;100.00;99254.84;5035732;28;21425;-62
2024/01/06 08:51:37;;;;;;;5.20;3.30;;;;;;;5.88;100.00;99258.09;5045695;28;20237;-62
2024/01/06 08:54:05;;;;;;;5.30;2.77;;;;;;;5.90;100.00;99260.56;5037688;28;20178;-63
2024/01/06 08:56:30;;;;;;;5.20;3.50;;;;;;;5.93;100.00;99261.22;5031346;28;20251;-64
2024/01/06 08:58:57;;;;;;;6.93;3.33;;;;;;;5.98;100.00;99264.41;5030706;28;20178;-64
2024/01/06 09:01:22;;;;;;;3.20;2.90;;;;;;;6.05;100.00;99256.44;5041720;28;20227;-67
2024/01/06 09:03:47;;;;;;;6.83;3.07;;;;;;;6.15;100.00;99262.75;5035255;28;20543;-63
2024/01/06 09:06:13;;;;;;;3.27;2.60;;;;;;;6.23;100.00;99265.75;5031911;28;20275;-64
2024/01/06 09:08:38;;;;;;;5.27;2.77;;;;;;;6.25;100.00;99266.50;5034960;28;20197;-63
2024/01/06 09:11:04;;;;;;;5.57;2.60;;;;;;;6.28;100.00;99268.09;5032816;28;20942;-63
2024/01/06 09:13:29;;;;;;;3.33;2.90;;;;;;;6.32;100.00;99276.44;5048818;28;20189;-64
2024/01/06 09:15:54;;;;;;;5.27;2.50;;;;;;;6.36;100.00;99276.16;5033467;28;20257;-63
2024/01/06 09:18:20;;;;;;;3.87;2.73;;;;;;;6.24;100.00;99280.19;5034743;28;20189;-64
2024/01/06 09:20:47;;;;;;;4.13;2.43;;;;;;;6.22;100.00;99278.63;5032301;28;20317;-64
2024/01/06 09:23:13;;;;;;;5.00;2.53;;;;;;;6.12;100.00;99285.91;5054388;28;20182;-64
2024/01/06 09:25:39;;;;;;;5.37;3.20;;;;;;;6.20;100.00;99288.06;5034914;28;20210;-64
2024/01/06 09:28:05;;;;;;;5.90;3.50;;;;;;;6.20;100.00;99291.47;5030130;28;20269;-64
2024/01/06 09:30:30;;;;;;;5.30;3.07;;;;;;;6.01;100.00;99295.81;5031763;28;20299;-64
2024/01/06 09:32:56;;;;;;;5.83;2.57;;;;;;;5.98;100.00;99294.22;5045383;28;20281;-65
2024/01/06 09:35:21;;;;;;;5.00;3.20;;;;;;;5.97;100.00;99302.75;5043404;28;20188;-64
2024/01/06 09:37:46;;;;;;;3.17;2.60;;;;;;;5.99;100.00;99311.19;5036739;28;20220;-64
2024/01/06 09:40:15;;;;;;;5.37;2.97;;;;;;;6.03;100.00;99310.16;5023818;28;20536;-63
2024/01/06 09:42:41;;;;;;;5.57;2.47;;;;;;;6.08;100.00;99307.38;5060730;28;20213;-63
2024/01/06 09:45:07;;;;;;;3.17;2.60;;;;;;;6.07;100.00;99306.53;5033709;28;20286;-63
2024/01/06 09:47:34;;;;;;;6.03;3.10;;;;;;;6.14;100.00;99300.25;5034209;28;20181;-61
2024/01/06 09:50:03;;;;;;;5.70;2.73;;;;;;;6.32;100.00;99309.63;5033587;28;20232;-62
2024/01/06 09:52:32;;;;;;;3.13;2.67;;;;;;;6.25;100.00;99312.50;5022583;28;20214;-62
2024/01/06 09:54:59;;;;;;;4.83;2.70;;;;;;;6.24;100.00;99312.53;5032422;28;20293;-62
2024/01/06 09:57:26;;;;;;;5.00;2.53;;;;;;;6.33;100.00;99309.53;5033722;28;20559;-63
2024/01/06 09:59:51;;;;;;;6.13;2.70;;;;;;;6.33;100.00;99317.22;5032084;28;20182;-62
2024/01/06 10:02:17;;;;;;;4.30;2.80;;;;;;;6.29;100.00;99326.75;5055471;28;20331;-63
2024/01/06 10:04:44;;;;;;;6.00;3.27;;;;;;;6.23;100.00;99326.25;5034877;28;20537;-64
2024/01/06 10:07:13;;;;;;;4.43;2.80;;;;;;;6.25;100.00;99320.16;5034222;28;20224;-63
2024/01/06 10:09:38;;;;;;;3.20;2.80;;;;;;;6.31;100.00;99321.56;5034172;28;20190;-62
2024/01/06 10:12:04;;;;;;;3.97;3.40;;;;;;;6.27;100.00;99318.31;5043493;28;20232;-62
2024/01/06 10:14:29;;;;;;;5.07;3.10;;;;;;;6.44;100.00;99316.69;5033843;28;20288;-62
2024/01/06 10:16:55;;;;;;;3.93;3.17;;;;;;;6.35;100.00;99319.69;5065444;28;20232;-62
2024/01/06 10:19:20;;;;;;;4.03;3.07;;;;;;;6.16;100.00;99324.88;5033782;28;20221;-63
2024/01/06 10:21:46;;;;;;;4.07;3.00;;;;;;;6.22;100.00;99329.69;5050614;28;20220;-62
2024/01/06 10:24:11;;;;;;;3.43;2.97;;;;;;;6.30;100.00;99336.06;5038262;28;20186;-62
2024/01/06 10:26:38;;;;;;;4.37;2.87;;;;;;;6.40;100.00;99333.88;5031812;28;20233;-62
2024/01/06 10:29:03;;;;;;;5.03;2.93;;;;;;;6.51;100.00;99330.81;5033803;28;20193;-60
2024/01/06 10:31:32;;;;;;;2.80;2.60;;;;;;;6.55;100.00;99334.00;5053117;28;20225;-62
2024/01/06 10:33:58;;;;;;;4.03;2.90;;;;;;;6.71;100.00;99328.94;5032338;28;20545;-62
2024/01/06 10:36:23;;;;;;;3.80;3.13;;;;;;;6.70;100.00;99330.69;5033599;28;20178;-62
2024/01/06 10:38:49;;;;;;;4.00;3.07;;;;;;;6.75;100.00;99328.72;5037144;28;20182;-61
2024/01/06 10:41:16;;;;;;;5.20;3.33;;;;;;;6.70;100.00;99325.59;5042552;28;20230;-61
2024/01/06 10:43:43;;;;;;;5.40;3.73;;;;;;;6.98;100.00;99328.44;5045074;28;20178;-62
2024/01/06 10:46:12;;;;;;;3.57;3.03;;;;;;;7.16;100.00;99322.38;5033088;28;20688;-61
2024/01/06 10:48:42;;;;;;;4.37;3.03;;;;;;;7.10;100.00;99327.81;5036009;28;20181;-61
2024/01/06 10:51:08;;;;;;;4.13;2.77;;;;;;;7.38;100.00;99327.19;5034505;28;20271;-61
2024/01/06 10:53:38;;;;;;;4.43;3.23;;;;;;;7.33;100.00;99323.19;5047073;28;20404;-61
2024/01/06 10:56:04;;;;;;;6.33;3.07;;;;;;;7.51;100.00;99323.94;5031431;28;20524;-61
2024/01/06 10:58:33;;;;;;;3.93;2.90;;;;;;;7.57;100.00;99314.19;5033393;28;20720;-61
2024/01/06 11:00:58;;;;;;;4.10;3.17;;;;;;;7.62;100.00;99319.06;5013237;28;20221;-62
2024/01/06 11:03:24;;;;;;;4.60;3.30;;;;;;;7.85;100.00;99317.81;5039897;28;20182;-62
2024/01/06 11:05:50;;;;;;;5.47;3.50;;;;;;;8.10;100.00;99320.72;5032639;28;20206;-62
2024/01/06 11:08:17;;;;;;;4.87;3.10;;;;;;;8.34;100.00;99313.38;5064773;28;20188;-63
2024/01/06 11:10:44;;;;;;;5.90;3.73;;;;;;;8.29;100.00;99310.25;5029394;28;20232;-63
2024/01/06 11:13:11;;;;;;;4.73;2.93;;;;;;;8.26;100.00;99313.81;5054112;28;20605;-62
2024/01/06 11:15:47;;;;;;;5.43;3.60;;;;;;;8.38;100.00;99304.56;5031298;28;20361;-63
2024/01/06 11:18:34;;;;;;;3.70;3.10;;;;;;;8.27;100.00;99304.38;5032362;28;20591;-61
2024/01/06 11:21:36;;;;;;;4.10;3.20;;;;;;;8.43;100.00;99301.75;5031887;28;20572;-61
2024/01/06 11:24:07;;;;;;;4.03;3.17;;;;;;;8.66;100.00;99303.81;5039090;28;20205;-63
2024/01/06 11:26:32;;;;;;;5.03;3.53;;;;;;;8.91;100.00;99304.91;5032204;28;20202;-63
2024/01/06 11:29:00;;;;;;;7.20;3.33;;;;;;;8.69;100.00;99310.50;5031409;28;20182;-62
2024/01/06 11:31:31;;;;;;;3.93;3.50;;;;;;;8.68;100.00;99294.31;5043737;28;20308;-63
2024/01/06 11:34:15;;;;;;;7.03;3.73;;;;;;;8.61;100.00;99303.28;5040673;28;20190;-62